M I D A S
Marine Information and Data Acquisition System
Tripno 886 of the Zeeleeuw from 2005-04-28 06:45:36 to 2005-04-28 15:38:20
Back to CruiseResearch ActivitiesStationsMapUnderway DataData graphs

EquipmentUnitsComment
TimeDGPSUTC
LatitudeDGPSDM.mWGS84
LongitudeDGPSDM.mWGS84
HeadingGyrodeg 
SOGDGPSknotsSpeed over ground
COGDGPSdegCourse over ground
DepthEcho soundermeters200 kHz
Missing or incorrect values are displayed as -999
Navigation data collected by the RV Zeeleeuw from 2005-04-28 06:44:08 to 2005-04-28 15:48:48
                                                                                    Next 1000 lines
Time Latitude Longitude Heading SOG COG Depth
2005-04-28 06:44:18 51°13.597 2°56.108 126.7 0.2 43 6.2
2005-04-28 06:44:23 51°13.598 2°56.108 126.6 -999 183 6.1
2005-04-28 06:44:28 51°13.598 2°56.108 126.3 0.1 209 6.7
2005-04-28 06:44:33 51°13.598 2°56.108 126.2 0.1 266 6.5
2005-04-28 06:44:38 51°13.598 2°56.108 126.2 0.1 258 6.6
2005-04-28 06:44:43 51°13.598 2°56.108 126.2 -999 292 6.6
2005-04-28 06:44:48 51°13.598 2°56.108 126.2 -999 292 6.3
2005-04-28 06:44:53 51°13.598 2°56.108 126.3 0.1 216 -999
2005-04-28 06:44:58 51°13.598 2°56.108 126.4 -999 105 6.6
2005-04-28 06:45:03 51°13.598 2°56.108 125.9 -999 105 6.6
2005-04-28 06:45:08 51°13.598 2°56.109 124.5 -999 123 6.4
2005-04-28 06:45:13 51°13.597 2°56.108 123.6 0.1 168 6.7
2005-04-28 06:45:18 51°13.597 2°56.108 122.5 0.2 206 6
2005-04-28 06:45:23 51°13.597 2°56.108 121.1 0.1 209 6.6
2005-04-28 06:45:28 51°13.597 2°56.108 119.3 -999 200 6.7
2005-04-28 06:45:33 51°13.596 2°56.108 118.2 0.1 198 6.6
2005-04-28 06:45:38 51°13.596 2°56.108 116.8 0.2 212 6.7
2005-04-28 06:45:42 51°13.596 2°56.108 115.4 0.1 209 6.8
2005-04-28 06:45:48 51°13.596 2°56.108 113.9 0.1 209 6.7
2005-04-28 06:45:53 51°13.596 2°56.108 112.5 0.1 200 6.5
2005-04-28 06:45:58 51°13.596 2°56.108 111.2 0.1 200 6.4
2005-04-28 06:46:03 51°13.596 2°56.107 110.3 -999 250 6.8
2005-04-28 06:46:08 51°13.596 2°56.106 109 0.3 286 6.8
2005-04-28 06:46:13 51°13.597 2°56.104 108.5 0.3 286 6.7
2005-04-28 06:46:18 51°13.597 2°56.102 108.3 0.8 287 6.4
2005-04-28 06:46:23 51°13.598 2°56.099 108.3 0.8 287 6.5
2005-04-28 06:46:28 51°13.598 2°56.096 108.6 0.8 287 6.5
2005-04-28 06:46:33 51°13.599 2°56.093 108.9 1.6 292 6.8
2005-04-28 06:46:38 51°13.6 2°56.088 109.5 1.8 291 7
2005-04-28 06:46:44 51°13.601 2°56.084 110.1 2 289 -999
2005-04-28 06:46:48 51°13.602 2°56.079 110.6 2.2 291 -999
2005-04-28 06:46:54 51°13.604 2°56.074 111 2.4 292 -999
2005-04-28 06:46:58 51°13.605 2°56.069 111.3 2.5 293 -999
2005-04-28 06:47:04 51°13.607 2°56.063 111.7 2.6 294 -999
2005-04-28 06:47:08 51°13.608 2°56.058 112.1 2.8 296 -999
2005-04-28 06:47:14 51°13.61 2°56.052 112.6 2.8 296 -999
2005-04-28 06:47:18 51°13.611 2°56.047 113.4 3 294 -999
2005-04-28 06:47:24 51°13.613 2°56.039 114 3 294 -999
2005-04-28 06:47:29 51°13.615 2°56.033 114.5 3 295 -999
2005-04-28 06:47:34 51°13.617 2°56.027 114.8 3.1 293 -999
2005-04-28 06:47:38 51°13.619 2°56.021 115.2 3.1 293 -999
2005-04-28 06:47:44 51°13.621 2°56.013 115.5 3.2 294 -999
2005-04-28 06:47:48 51°13.623 2°56.007 115.9 3.4 294 -999
2005-04-28 06:47:54 51°13.625 2°55.999 116.6 3.6 295 -999
2005-04-28 06:47:59 51°13.627 2°55.991 117.5 3.7 295 -999
2005-04-28 06:48:03 51°13.63 2°55.984 119 3.9 296 -999
2005-04-28 06:48:09 51°13.632 2°55.974 120 4.2 296 -999
2005-04-28 06:48:14 51°13.635 2°55.966 120.5 4.3 296 -999
2005-04-28 06:48:18 51°13.638 2°55.958 121 4.3 297 -999
2005-04-28 06:48:24 51°13.641 2°55.949 121.7 4.4 298 -999
2005-04-28 06:48:28 51°13.643 2°55.94 123.1 4.6 297 -999
2005-04-28 06:48:34 51°13.647 2°55.931 124.1 4.7 298 -999
2005-04-28 06:48:39 51°13.65 2°55.921 124.6 4.7 299 -999
2005-04-28 06:48:43 51°13.654 2°55.914 124.9 4.8 300 -999
2005-04-28 06:48:49 51°13.658 2°55.904 125.5 4.8 302 -999
2005-04-28 06:48:54 51°13.661 2°55.895 125.9 4.9 303 -999
2005-04-28 06:48:58 51°13.664 2°55.887 126.4 4.9 303 -999
2005-04-28 06:49:04 51°13.669 2°55.876 127 4.9 304 -999
2005-04-28 06:49:08 51°13.672 2°55.868 127.2 5 304 -999
2005-04-28 06:49:14 51°13.677 2°55.858 127.4 5 305 -999
2005-04-28 06:49:18 51°13.68 2°55.851 127.4 5 305 -999
2005-04-28 06:49:24 51°13.684 2°55.84 127.4 5 305 -999
2005-04-28 06:49:29 51°13.688 2°55.832 127.2 4.7 304 -999
2005-04-28 06:49:34 51°13.692 2°55.823 126.9 4.7 304 -999
2005-04-28 06:49:39 51°13.695 2°55.815 126.2 4.7 304 -999
2005-04-28 06:49:44 51°13.699 2°55.806 125.4 4.7 303 -999
2005-04-28 06:49:49 51°13.703 2°55.797 124.6 4.7 303 -999
2005-04-28 06:49:54 51°13.706 2°55.789 123.8 4.7 303 -999
2005-04-28 06:49:58 51°13.709 2°55.782 123.1 4.7 303 -999
2005-04-28 06:50:04 51°13.714 2°55.771 121.9 4.6 303 -999
2005-04-28 06:50:09 51°13.716 2°55.764 120.6 4.4 301 -999
2005-04-28 06:50:14 51°13.719 2°55.755 119.4 4.4 301 -999
2005-04-28 06:50:18 51°13.722 2°55.749 118.6 3.9 300 -999
2005-04-28 06:50:24 51°13.724 2°55.742 117.5 3.7 300 -999
2005-04-28 06:50:29 51°13.725 2°55.738 115.1 3 297 -999
2005-04-28 06:50:33 51°13.726 2°55.735 111.5 2.1 298 11.3
2005-04-28 06:50:38 51°13.728 2°55.734 107.8 2.1 298 10.8
2005-04-28 06:50:43 51°13.728 2°55.734 102.7 2.1 298 10.8
2005-04-28 06:50:48 51°13.729 2°55.736 96.9 0.7 32 10.8
2005-04-28 06:50:53 51°13.73 2°55.738 91.4 1.1 54 11
2005-04-28 06:50:58 51°13.731 2°55.739 82.5 1.1 54 11
2005-04-28 06:51:03 51°13.731 2°55.739 78.1 1.1 54 10.9
2005-04-28 06:51:08 51°13.732 2°55.738 73.3 0.5 330 10.8
2005-04-28 06:51:13 51°13.732 2°55.737 70.6 0.6 288 11.1
2005-04-28 06:51:18 51°13.731 2°55.734 67.5 0.6 288 10.7
2005-04-28 06:51:22 51°13.731 2°55.732 64.9 1.2 257 10.6
2005-04-28 06:51:28 51°13.73 2°55.728 62.1 1.2 257 10.8
2005-04-28 06:51:33 51°13.729 2°55.724 60.3 1.2 257 10.6
2005-04-28 06:51:38 51°13.729 2°55.721 58 1.2 257 -999
2005-04-28 06:51:44 51°13.728 2°55.718 55.8 1.6 247 -999
2005-04-28 06:51:49 51°13.727 2°55.714 53.6 1.6 247 -999
2005-04-28 06:51:54 51°13.726 2°55.711 51.8 1.5 242 -999
2005-04-28 06:51:58 51°13.726 2°55.709 50.1 1.4 245 -999
2005-04-28 06:52:04 51°13.726 2°55.708 48.7 0.8 255 -999
2005-04-28 06:52:09 51°13.726 2°55.708 45.7 0.3 296 -999
2005-04-28 06:52:14 51°13.728 2°55.708 41.2 0.8 -999 -999
2005-04-28 06:52:18 51°13.729 2°55.709 34.6 0.8 -999 -999
2005-04-28 06:52:24 51°13.732 2°55.709 27.2 1.5 9 -999
2005-04-28 06:52:29 51°13.735 2°55.709 19.6 1.5 9 -999
2005-04-28 06:52:34 51°13.739 2°55.709 11.8 1.5 9 -999
2005-04-28 06:52:39 51°13.744 2°55.707 3.4 2.8 356 -999
2005-04-28 06:52:44 51°13.748 2°55.706 354.5 3.2 346 -999
2005-04-28 06:52:49 51°13.752 2°55.703 345.4 3.1 340 -999
2005-04-28 06:52:52 51°13.755 2°55.701 341.8 3.1 339 -999
2005-04-28 06:52:58 51°13.759 2°55.697 339 3.1 335 -999
2005-04-28 06:53:04 51°13.764 2°55.693 337.9 3.3 335 9.5
2005-04-28 06:53:08 51°13.768 2°55.69 337.5 3.3 335 -999
2005-04-28 06:53:14 51°13.774 2°55.686 337.2 4 335 -999
2005-04-28 06:53:19 51°13.78 2°55.682 337 4 335 -999
2005-04-28 06:53:23 51°13.785 2°55.678 337 4.6 334 -999
2005-04-28 06:53:28 51°13.791 2°55.673 337 4.8 334 9.3
2005-04-28 06:53:33 51°13.797 2°55.668 336.9 5.3 334 9.3
2005-04-28 06:53:38 51°13.805 2°55.662 336.8 5.4 333 9.1
2005-04-28 06:53:43 51°13.813 2°55.656 337.1 5.4 333 9.3
2005-04-28 06:53:48 51°13.82 2°55.65 337.6 5.4 333 9.2
2005-04-28 06:53:53 51°13.828 2°55.644 338 5.4 333 9.3
2005-04-28 06:53:58 51°13.835 2°55.639 338.3 5.4 333 9.5
2005-04-28 06:54:03 51°13.845 2°55.632 338.4 5.4 333 9.2
2005-04-28 06:54:08 51°13.853 2°55.626 338.4 -999 -999 9.3
2005-04-28 06:54:13 51°13.861 2°55.619 338.4 7 335 9.1
2005-04-28 06:54:18 51°13.87 2°55.612 338.4 7 335 9.1
2005-04-28 06:54:24 51°13.881 2°55.604 338.4 7.3 335 9.1
2005-04-28 06:54:28 51°13.889 2°55.598 338.4 7.4 335 9
2005-04-28 06:54:33 51°13.898 2°55.592 338.5 7.6 336 9.4
2005-04-28 06:54:38 51°13.908 2°55.584 338.9 7.6 336 9.5
2005-04-28 06:54:43 51°13.918 2°55.577 338.9 7.6 335 9.3
2005-04-28 06:54:48 51°13.928 2°55.569 338.7 7.7 334 9.5
2005-04-28 06:54:52 51°13.936 2°55.563 338 7.7 334 9.2
2005-04-28 06:54:58 51°13.947 2°55.554 337.6 7.8 334 9.3
2005-04-28 06:55:02 51°13.955 2°55.548 338.2 7.9 334 9.5
2005-04-28 06:55:08 51°13.967 2°55.539 338.8 7.9 334 9.6
2005-04-28 06:55:13 51°13.978 2°55.531 339.1 7.9 334 9.6
2005-04-28 06:55:18 51°13.987 2°55.524 339.3 8 335 9.5
2005-04-28 06:55:23 51°13.998 2°55.516 339.3 8 335 9.4
2005-04-28 06:55:28 51°14.008 2°55.509 339.1 8 335 9.3
2005-04-28 06:55:33 51°14.019 2°55.501 338.9 8 335 9.2
2005-04-28 06:55:38 51°14.028 2°55.494 338.9 8 335 9.1
2005-04-28 06:55:43 51°14.039 2°55.486 339 8 335 8.9
2005-04-28 06:55:48 51°14.048 2°55.479 338.6 8.1 334 9.1
2005-04-28 06:55:54 51°14.06 2°55.47 338.5 8.1 334 9
2005-04-28 06:55:58 51°14.069 2°55.464 338.5 8.3 335 9.2
2005-04-28 06:56:03 51°14.081 2°55.455 338.5 8.7 334 8.8
2005-04-28 06:56:08 51°14.092 2°55.446 338.6 8.8 335 9.1
2005-04-28 06:56:13 51°14.103 2°55.438 338.4 8.8 335 9.1
2005-04-28 06:56:18 51°14.116 2°55.428 337.9 8.8 335 9.2
2005-04-28 06:56:23 51°14.128 2°55.418 338.2 9.7 334 9.2
2005-04-28 06:56:28 51°14.141 2°55.408 338 9.8 333 9.8
2005-04-28 06:56:33 51°14.153 2°55.397 337.2 10.2 332 9.6
2005-04-28 06:56:38 51°14.165 2°55.387 336.2 10.3 331 10
2005-04-28 06:56:43 51°14.178 2°55.373 335.1 10.5 329 9.8
2005-04-28 06:56:48 51°14.19 2°55.361 333.7 10.5 329 9.8
2005-04-28 06:56:53 51°14.202 2°55.348 332 10.6 326 9.9
2005-04-28 06:56:58 51°14.213 2°55.335 330.4 10.6 326 10
2005-04-28 06:57:03 51°14.226 2°55.319 328.9 10.7 323 10.9
2005-04-28 06:57:08 51°14.237 2°55.304 327.2 10.7 323 10
2005-04-28 06:57:13 51°14.249 2°55.287 325.1 10.7 323 10.8
2005-04-28 06:57:18 51°14.258 2°55.273 322.9 10.8 317 10.2
2005-04-28 06:57:23 51°14.269 2°55.256 321.1 10.8 316 10.6
2005-04-28 06:57:28 51°14.28 2°55.236 319.2 10.8 316 10
2005-04-28 06:57:33 51°14.29 2°55.218 317.3 10.8 316 9.8
2005-04-28 06:57:38 51°14.299 2°55.2 315.3 11.1 311 9.6
2005-04-28 06:57:43 51°14.31 2°55.178 313.6 11.3 308 9.8
2005-04-28 06:57:48 51°14.319 2°55.158 311.9 11.4 307 9.7
2005-04-28 06:57:53 51°14.328 2°55.136 310.3 11.5 306 9.9
2005-04-28 06:57:58 51°14.336 2°55.117 309 11.7 304 9.9
2005-04-28 06:58:03 51°14.346 2°55.093 308.2 11.7 304 9.8
2005-04-28 06:58:08 51°14.355 2°55.071 307.5 11.7 304 9.8
2005-04-28 06:58:12 51°14.361 2°55.052 306.1 11.7 304 9.6
2005-04-28 06:58:18 51°14.372 2°55.026 304.8 12 301 9.7
2005-04-28 06:58:23 51°14.382 2°55.004 306.2 12.1 303 9.6
2005-04-28 06:58:28 51°14.394 2°54.984 309.7 12.1 303 9.7
2005-04-28 06:58:33 51°14.406 2°54.964 314.5 12.1 303 9.8
2005-04-28 06:58:38 51°14.418 2°54.947 319 12.5 314 9.9
2005-04-28 06:58:42 51°14.43 2°54.93 322.8 12.8 320 10
2005-04-28 06:58:48 51°14.447 2°54.91 326.9 12.8 321 10
2005-04-28 06:58:53 51°14.462 2°54.893 330 13.1 324 10
2005-04-28 06:58:58 51°14.478 2°54.876 331.5 13.1 324 9.9
2005-04-28 06:59:03 51°14.492 2°54.859 333 13.3 324 9.6
2005-04-28 06:59:08 51°14.508 2°54.841 333.1 13.4 323 9.6
2005-04-28 06:59:13 51°14.523 2°54.825 332.2 13.5 323 9.5
2005-04-28 06:59:18 51°14.538 2°54.811 333.3 13.5 326 9.4
2005-04-28 06:59:22 51°14.553 2°54.799 337.2 13.4 333 9.3
2005-04-28 06:59:28 51°14.572 2°54.784 341.2 13.4 333 9.2
2005-04-28 06:59:33 51°14.589 2°54.774 344.9 13.4 333 9
2005-04-28 06:59:38 51°14.605 2°54.765 347.6 13.2 339 9.2
2005-04-28 06:59:43 51°14.624 2°54.755 349.3 13.2 339 9
2005-04-28 06:59:48 51°14.641 2°54.747 351.4 13.1 342 8.9
2005-04-28 06:59:53 51°14.659 2°54.738 352.5 13.2 344 8.9
2005-04-28 06:59:58 51°14.674 2°54.731 353.1 13.2 344 8.8
2005-04-28 07:00:03 51°14.694 2°54.723 353.9 13.2 346 8.8
2005-04-28 07:00:08 51°14.712 2°54.716 354.8 13.2 346 8.8
2005-04-28 07:00:13 51°14.728 2°54.71 355.6 13.1 347 8.9
2005-04-28 07:00:18 51°14.746 2°54.704 356.3 13.2 347 9
2005-04-28 07:00:23 51°14.764 2°54.698 356.9 13.2 347 8.8
2005-04-28 07:00:28 51°14.784 2°54.691 357.1 13.2 347 8.7
2005-04-28 07:00:33 51°14.802 2°54.685 357.2 13.2 347 8.6
2005-04-28 07:00:38 51°14.82 2°54.679 357 13.2 347 8.7
2005-04-28 07:00:43 51°14.836 2°54.674 357.4 13.2 349 8.5
2005-04-28 07:00:48 51°14.855 2°54.669 358.4 13.1 350 8.5
2005-04-28 07:00:53 51°14.874 2°54.665 359.3 13.1 350 8.5
2005-04-28 07:00:58 51°14.892 2°54.661 0.3 13.1 351 8.8
2005-04-28 07:01:03 51°14.91 2°54.657 1.1 13.1 351 8.5
2005-04-28 07:01:08 51°14.928 2°54.654 1.5 13.1 351 8.4
2005-04-28 07:01:13 51°14.946 2°54.649 1.7 13.2 352 8.4
2005-04-28 07:01:18 51°14.964 2°54.645 1.5 13.2 352 8.4
2005-04-28 07:01:24 51°14.984 2°54.64 0.7 13.2 352 8.2
2005-04-28 07:01:28 51°15 2°54.636 0.1 13.2 352 8.1
2005-04-28 07:01:33 51°15.018 2°54.63 359.3 13.2 352 7.9
2005-04-28 07:01:38 51°15.034 2°54.624 358.1 13.1 348 7.9
2005-04-28 07:01:43 51°15.054 2°54.617 357.2 13.1 348 5.7
2005-04-28 07:01:48 51°15.071 2°54.611 356.4 13.1 348 7.6
2005-04-28 07:01:53 51°15.088 2°54.604 356.1 13.1 348 7.7
2005-04-28 07:01:58 51°15.104 2°54.598 355.8 12.9 347 -999
2005-04-28 07:02:03 51°15.123 2°54.591 355.6 12.9 347 7.6
2005-04-28 07:02:08 51°15.141 2°54.584 355 12.9 347 7.7
2005-04-28 07:02:13 51°15.158 2°54.576 354.7 12.9 347 -999
2005-04-28 07:02:18 51°15.176 2°54.57 354.6 12.9 347 7.7
2005-04-28 07:02:23 51°15.193 2°54.563 354.6 13.1 346 7.8
2005-04-28 07:02:28 51°15.211 2°54.557 354.9 13.1 346 7.9
2005-04-28 07:02:33 51°15.229 2°54.551 355.5 13.2 348 7.8
2005-04-28 07:02:38 51°15.247 2°54.545 356 13.2 349 7.9
2005-04-28 07:02:43 51°15.265 2°54.541 357.4 13.2 349 7.9
2005-04-28 07:02:48 51°15.282 2°54.538 359.2 13.2 349 7.9
2005-04-28 07:02:52 51°15.298 2°54.534 359.7 13.2 349 8
2005-04-28 07:02:58 51°15.32 2°54.529 0.5 13.2 349 8.1
2005-04-28 07:03:03 51°15.338 2°54.524 0.7 13.3 352 8.2
2005-04-28 07:03:08 51°15.356 2°54.518 359.7 13.4 349 8.2
2005-04-28 07:03:13 51°15.374 2°54.51 357.3 13.4 347 8.2
2005-04-28 07:03:18 51°15.39 2°54.502 354.4 13.4 345 8.3
2005-04-28 07:03:23 51°15.409 2°54.491 351.4 13.5 341 8.4
2005-04-28 07:03:28 51°15.427 2°54.48 349.1 13.5 341 8.4
2005-04-28 07:03:33 51°15.444 2°54.47 347.6 13.5 341 8.4
2005-04-28 07:03:38 51°15.462 2°54.459 347 13.5 341 8.5
2005-04-28 07:03:43 51°15.478 2°54.45 346.6 13.6 339 8.6
2005-04-28 07:03:48 51°15.497 2°54.439 347.1 13.6 339 8.6
2005-04-28 07:03:53 51°15.515 2°54.43 348.5 13.5 342 8.7
2005-04-28 07:03:58 51°15.532 2°54.423 349.8 13.5 342 8.7
2005-04-28 07:04:03 51°15.55 2°54.415 351.6 13.6 345 8.9
2005-04-28 07:04:08 51°15.57 2°54.407 352.7 13.6 345 8.9
2005-04-28 07:04:13 51°15.588 2°54.399 353.4 13.6 345 8.9
2005-04-28 07:04:18 51°15.605 2°54.392 353.4 13.6 345 9.1
2005-04-28 07:04:23 51°15.625 2°54.382 353 13.6 345 9.2
2005-04-28 07:04:28 51°15.643 2°54.373 351.7 13.7 342 9.2
2005-04-28 07:04:32 51°15.657 2°54.365 350.7 13.7 342 9.2
2005-04-28 07:04:38 51°15.677 2°54.354 349.5 13.7 342 9.3
2005-04-28 07:04:43 51°15.697 2°54.342 349 13.7 342 9.4
2005-04-28 07:04:48 51°15.715 2°54.332 348.4 13.7 342 9.5
2005-04-28 07:04:54 51°15.735 2°54.321 348.6 13.7 340 9.5
2005-04-28 07:04:58 51°15.75 2°54.314 349.1 13.8 342 9.6
2005-04-28 07:05:03 51°15.77 2°54.303 349.7 13.8 342 9.7
2005-04-28 07:05:08 51°15.788 2°54.294 350.5 13.7 342 9.7
2005-04-28 07:05:13 51°15.806 2°54.285 350.9 13.7 342 9.8
2005-04-28 07:05:18 51°15.824 2°54.276 351.4 13.7 342 9.8
2005-04-28 07:05:23 51°15.842 2°54.267 351.4 13.8 343 10
2005-04-28 07:05:28 51°15.86 2°54.258 351.2 13.8 343 9.9
2005-04-28 07:05:33 51°15.877 2°54.248 350.7 13.2 341 10
2005-04-28 07:05:38 51°15.893 2°54.24 350.3 13.2 341 10
2005-04-28 07:05:43 51°15.911 2°54.23 350.2 13.2 341 10.1
2005-04-28 07:05:48 51°15.927 2°54.221 350.1 12.5 341 10.2
2005-04-28 07:05:53 51°15.942 2°54.213 350.3 12.5 341 10.4
2005-04-28 07:05:58 51°15.956 2°54.206 350.6 11.3 341 10.4
2005-04-28 07:06:03 51°15.969 2°54.199 351.3 10.6 343 10.5
2005-04-28 07:06:09 51°15.984 2°54.194 352 10.6 343 10.5
2005-04-28 07:06:13 51°15.995 2°54.191 354.5 9.4 348 10.6
2005-04-28 07:06:18 51°16.007 2°54.188 357.8 9.4 348 10.6
2005-04-28 07:06:23 51°16.019 2°54.187 1.1 8.7 354 10.7
2005-04-28 07:06:28 51°16.03 2°54.187 5.5 8.3 357 10.6
2005-04-28 07:06:33 51°16.039 2°54.188 8.5 8.3 357 10.6
2005-04-28 07:06:38 51°16.049 2°54.189 11.8 8.3 357 10.6
2005-04-28 07:06:43 51°16.06 2°54.192 15.1 7.2 7 10.7
2005-04-28 07:06:48 51°16.069 2°54.195 18.1 7.2 7 10.7
2005-04-28 07:06:53 51°16.078 2°54.198 21.2 6.8 13 10.7
2005-04-28 07:06:58 51°16.086 2°54.202 24.1 6.4 14 10.6
2005-04-28 07:07:03 51°16.095 2°54.206 25.7 6.4 16 10.7
2005-04-28 07:07:08 51°16.103 2°54.21 26.4 6.4 16 10.7
2005-04-28 07:07:13 51°16.112 2°54.214 26.9 6.4 16 10.7
2005-04-28 07:07:18 51°16.12 2°54.218 27.1 6.2 17 10.7
2005-04-28 07:07:23 51°16.128 2°54.222 27.2 6.2 17 10.7
2005-04-28 07:07:28 51°16.136 2°54.225 27.1 6.2 17 10.7
2005-04-28 07:07:32 51°16.143 2°54.228 26.9 6.2 17 10.7
2005-04-28 07:07:38 51°16.152 2°54.232 26.2 6.2 17 10.8
2005-04-28 07:07:43 51°16.16 2°54.235 25.9 6.2 17 10.7
2005-04-28 07:07:48 51°16.167 2°54.239 25.3 5.9 16 10.8
2005-04-28 07:07:52 51°16.174 2°54.241 24.6 5.9 16 10.8
2005-04-28 07:07:58 51°16.183 2°54.245 24.6 5.9 16 10.7
2005-04-28 07:08:03 51°16.191 2°54.248 25.4 5.8 16 10.8
2005-04-28 07:08:08 51°16.198 2°54.252 26.3 5.8 16 10.8
2005-04-28 07:08:13 51°16.204 2°54.255 27.1 5.8 16 10.8
2005-04-28 07:08:18 51°16.211 2°54.258 28 5.8 16 10.8
2005-04-28 07:08:24 51°16.218 2°54.262 29.4 4.9 18 10.8
2005-04-28 07:08:28 51°16.223 2°54.266 31.1 4.7 20 10.8
2005-04-28 07:08:33 51°16.228 2°54.269 33 4.3 22 10.8
2005-04-28 07:08:38 51°16.232 2°54.272 35.8 4.3 22 10.8
2005-04-28 07:08:43 51°16.236 2°54.276 37.8 3.5 27 10.8
2005-04-28 07:08:48 51°16.239 2°54.278 40.8 3.5 27 10.8
2005-04-28 07:08:53 51°16.241 2°54.279 44.4 3.5 27 10.8
2005-04-28 07:08:58 51°16.242 2°54.279 49.1 1.4 24 10.9
2005-04-28 07:09:03 51°16.242 2°54.278 54.6 0.6 350 10.8
2005-04-28 07:09:08 51°16.242 2°54.276 59.8 0.6 350 10.8
2005-04-28 07:09:12 51°16.242 2°54.276 62.9 0.7 283 10.8
2005-04-28 07:09:18 51°16.243 2°54.274 64.5 0.7 283 10.8
2005-04-28 07:09:22 51°16.243 2°54.272 66 0.7 275 10.8
2005-04-28 07:09:28 51°16.243 2°54.271 67 0.7 275 10.8
2005-04-28 07:09:32 51°16.243 2°54.269 67.9 0.7 275 10.9
2005-04-28 07:09:38 51°16.243 2°54.268 68.6 0.7 279 10.8
2005-04-28 07:09:43 51°16.244 2°54.266 69.1 0.7 282 10.8
2005-04-28 07:09:48 51°16.244 2°54.264 69.6 0.7 282 10.8
2005-04-28 07:09:53 51°16.244 2°54.263 70.1 0.8 280 10.8
2005-04-28 07:09:58 51°16.244 2°54.261 70.4 0.7 277 10.8
2005-04-28 07:10:03 51°16.244 2°54.26 70.8 0.7 275 10.9
2005-04-28 07:10:08 51°16.244 2°54.258 71.1 0.7 279 10.9
2005-04-28 07:10:13 51°16.244 2°54.256 71.6 0.7 278 10.8
2005-04-28 07:10:18 51°16.244 2°54.255 71.9 0.7 275 10.9
2005-04-28 07:10:22 51°16.245 2°54.254 72.4 0.8 280 10.9
2005-04-28 07:10:28 51°16.245 2°54.252 72.8 0.8 275 10.9
2005-04-28 07:10:33 51°16.245 2°54.25 73.1 0.7 275 10.8
2005-04-28 07:10:38 51°16.245 2°54.248 73.5 0.7 269 10.9
2005-04-28 07:10:43 51°16.245 2°54.247 73.9 0.8 273 10.8
2005-04-28 07:10:48 51°16.245 2°54.245 74.3 0.8 273 10.8
2005-04-28 07:10:53 51°16.245 2°54.244 74.6 0.7 280 10.9
2005-04-28 07:10:58 51°16.245 2°54.242 75 0.7 276 10.8
2005-04-28 07:11:03 51°16.246 2°54.241 75.4 0.7 284 10.9
2005-04-28 07:11:08 51°16.246 2°54.239 75.8 0.7 282 10.8
2005-04-28 07:11:13 51°16.246 2°54.237 76.1 0.7 284 10.8
2005-04-28 07:11:18 51°16.246 2°54.236 76.3 0.7 277 10.9
2005-04-28 07:11:22 51°16.246 2°54.234 76.6 0.7 273 10.9
2005-04-28 07:11:28 51°16.246 2°54.232 76.9 0.7 280 10.9
2005-04-28 07:11:33 51°16.246 2°54.231 77.2 0.7 275 10.9
2005-04-28 07:11:38 51°16.246 2°54.229 77.4 0.7 277 10.9
2005-04-28 07:11:43 51°16.247 2°54.227 77.6 0.7 279 10.9
2005-04-28 07:11:48 51°16.247 2°54.226 77.8 0.7 279 10.9
2005-04-28 07:11:53 51°16.247 2°54.224 77.9 0.7 274 10.9
2005-04-28 07:11:59 51°16.247 2°54.222 78.1 0.7 274 10.8
2005-04-28 07:12:03 51°16.247 2°54.221 78.2 0.7 274 10.8
2005-04-28 07:12:08 51°16.247 2°54.22 78.3 0.7 274 10.9
2005-04-28 07:12:12 51°16.247 2°54.219 78.5 0.7 274 10.9
2005-04-28 07:12:18 51°16.247 2°54.217 78.5 0.6 278 10.9
2005-04-28 07:12:23 51°16.248 2°54.215 78.6 0.7 281 10.9
2005-04-28 07:12:28 51°16.248 2°54.213 78.7 0.7 281 10.9
2005-04-28 07:12:33 51°16.248 2°54.212 78.8 0.7 279 10.9
2005-04-28 07:12:38 51°16.248 2°54.21 78.9 0.7 277 10.9
2005-04-28 07:12:43 51°16.248 2°54.209 78.9 0.7 277 10.9
2005-04-28 07:12:48 51°16.249 2°54.207 78.9 0.8 283 10.9
2005-04-28 07:12:53 51°16.249 2°54.206 78.8 0.7 285 10.8
2005-04-28 07:12:58 51°16.249 2°54.204 78.6 0.7 279 10.9
2005-04-28 07:13:02 51°16.249 2°54.203 78.4 0.7 281 10.8
2005-04-28 07:13:08 51°16.249 2°54.201 78.4 0.7 281 10.9
2005-04-28 07:13:13 51°16.249 2°54.199 78.3 0.7 277 10.8
2005-04-28 07:13:18 51°16.25 2°54.198 78.2 0.7 278 10.9
2005-04-28 07:13:23 51°16.25 2°54.196 78.2 0.7 284 10.8
2005-04-28 07:13:28 51°16.25 2°54.194 78.1 0.7 284 10.8
2005-04-28 07:13:33 51°16.25 2°54.193 78 0.8 281 10.9
2005-04-28 07:13:38 51°16.25 2°54.191 78 0.8 281 10.9
2005-04-28 07:13:43 51°16.25 2°54.189 78 0.7 281 10.9
2005-04-28 07:13:48 51°16.251 2°54.188 78 0.7 281 10.9
2005-04-28 07:13:53 51°16.251 2°54.186 77.7 0.7 281 10.9
2005-04-28 07:13:58 51°16.251 2°54.185 77.7 0.8 280 10.9
2005-04-28 07:14:03 51°16.251 2°54.183 77.7 0.8 280 10.8
2005-04-28 07:14:08 51°16.252 2°54.182 77.6 0.8 280 10.9
2005-04-28 07:14:13 51°16.252 2°54.18 77.6 0.8 280 10.9
2005-04-28 07:14:18 51°16.252 2°54.179 77.5 0.8 280 10.9
2005-04-28 07:14:22 51°16.252 2°54.177 77.3 0.8 279 10.9
2005-04-28 07:14:28 51°16.253 2°54.176 77.2 0.8 279 10.9
2005-04-28 07:14:32 51°16.253 2°54.174 77.1 0.8 279 10.8
2005-04-28 07:14:38 51°16.253 2°54.173 77 0.7 281 10.8
2005-04-28 07:14:43 51°16.253 2°54.171 76.9 0.7 282 10.8
2005-04-28 07:14:48 51°16.254 2°54.169 76.9 0.7 282 10.8
2005-04-28 07:14:53 51°16.254 2°54.168 76.7 0.8 277 10.8
2005-04-28 07:14:58 51°16.254 2°54.166 76.7 0.8 280 10.8
2005-04-28 07:15:04 51°16.254 2°54.164 76.5 0.8 273 10.8
2005-04-28 07:15:08 51°16.254 2°54.162 76.3 0.8 273 10.8
2005-04-28 07:15:13 51°16.254 2°54.161 76.1 0.8 273 10.8
2005-04-28 07:15:18 51°16.255 2°54.159 76 0.7 284 10.8
2005-04-28 07:15:23 51°16.255 2°54.158 75.8 0.7 284 10.8
2005-04-28 07:15:28 51°16.255 2°54.156 75.6 0.8 287 10.8
2005-04-28 07:15:32 51°16.255 2°54.154 75.5 0.8 287 10.8
2005-04-28 07:15:38 51°16.255 2°54.152 75.4 0.8 279 10.8
2005-04-28 07:15:42 51°16.255 2°54.151 75.3 0.8 280 10.8
2005-04-28 07:15:48 51°16.255 2°54.149 75.2 0.8 280 10.8
2005-04-28 07:15:53 51°16.255 2°54.147 75.1 0.8 286 10.8
2005-04-28 07:15:58 51°16.256 2°54.145 75.1 0.8 278 10.8
2005-04-28 07:16:03 51°16.256 2°54.144 75.1 0.8 279 10.8
2005-04-28 07:16:08 51°16.256 2°54.142 75 0.8 284 10.9
2005-04-28 07:16:13 51°16.256 2°54.14 74.8 0.8 284 10.8
2005-04-28 07:16:18 51°16.256 2°54.138 74.7 0.8 276 10.7
2005-04-28 07:16:23 51°16.257 2°54.137 74.7 0.8 276 10.8
2005-04-28 07:16:28 51°16.257 2°54.135 74.6 0.8 286 10.8
2005-04-28 07:16:33 51°16.257 2°54.134 74.4 0.8 286 10.8
2005-04-28 07:16:39 51°16.257 2°54.132 74.4 0.8 286 10.8
2005-04-28 07:16:43 51°16.257 2°54.13 74.2 0.8 277 10.8
2005-04-28 07:16:48 51°16.258 2°54.128 74 0.8 280 10.8
2005-04-28 07:16:53 51°16.258 2°54.127 73.9 0.8 281 10.8
2005-04-28 07:16:58 51°16.258 2°54.125 73.5 0.8 285 10.8
2005-04-28 07:17:03 51°16.259 2°54.123 73.3 0.8 284 10.8
2005-04-28 07:17:08 51°16.259 2°54.122 73 0.8 284 10.8
2005-04-28 07:17:13 51°16.259 2°54.12 73 0.8 290 10.8
2005-04-28 07:17:18 51°16.259 2°54.119 72.6 0.8 290 10.8
2005-04-28 07:17:23 51°16.259 2°54.116 72.5 0.8 286 10.8
2005-04-28 07:17:28 51°16.259 2°54.115 72.5 0.8 286 10.8
2005-04-28 07:17:33 51°16.259 2°54.113 72.2 0.8 279 10.8
2005-04-28 07:17:38 51°16.26 2°54.111 72.1 0.8 279 10.8
2005-04-28 07:17:43 51°16.26 2°54.11 71.9 0.8 279 10.8
2005-04-28 07:17:48 51°16.26 2°54.108 71.8 0.8 279 10.8
2005-04-28 07:17:53 51°16.26 2°54.106 71.6 0.8 279 10.8
2005-04-28 07:17:58 51°16.261 2°54.104 71.5 0.8 276 10.8
2005-04-28 07:18:03 51°16.261 2°54.103 71.3 0.8 276 10.8
2005-04-28 07:18:08 51°16.261 2°54.101 71.1 0.8 276 10.8
2005-04-28 07:18:13 51°16.261 2°54.099 71.1 0.8 291 10.8
2005-04-28 07:18:18 51°16.262 2°54.097 71.1 0.8 291 10.8
2005-04-28 07:18:22 51°16.262 2°54.096 71.1 0.9 286 10.8
2005-04-28 07:18:28 51°16.262 2°54.094 71.1 0.9 286 10.8
2005-04-28 07:18:32 51°16.262 2°54.092 71.1 0.9 286 10.7
2005-04-28 07:18:38 51°16.263 2°54.091 71.3 0.8 281 10.7
2005-04-28 07:18:43 51°16.263 2°54.089 71.4 0.8 289 10.8
2005-04-28 07:18:48 51°16.263 2°54.087 71.4 0.8 289 10.8
2005-04-28 07:18:53 51°16.263 2°54.085 71.4 0.8 280 10.7
2005-04-28 07:18:58 51°16.263 2°54.083 71.4 0.8 282 10.8
2005-04-28 07:19:03 51°16.264 2°54.082 71.4 0.8 281 10.8
2005-04-28 07:19:08 51°16.264 2°54.08 71.4 0.8 281 10.8
2005-04-28 07:19:12 51°16.264 2°54.079 71.4 0.8 281 10.8
2005-04-28 07:19:18 51°16.264 2°54.077 71.4 0.8 281 10.8
2005-04-28 07:19:23 51°16.264 2°54.075 71.2 0.8 281 10.8
2005-04-28 07:19:28 51°16.265 2°54.073 71.2 0.8 280 10.9
2005-04-28 07:19:32 51°16.265 2°54.072 71.1 0.8 277 10.8
2005-04-28 07:19:38 51°16.265 2°54.07 71.1 0.8 284 10.8
2005-04-28 07:19:43 51°16.265 2°54.068 71.1 0.8 276 10.8
2005-04-28 07:19:49 51°16.266 2°54.066 71.1 0.8 276 10.8
2005-04-28 07:19:53 51°16.266 2°54.065 71.1 0.8 287 10.7
2005-04-28 07:19:58 51°16.266 2°54.063 71.1 0.8 288 10.8
2005-04-28 07:20:03 51°16.266 2°54.061 71.1 0.8 279 10.8
2005-04-28 07:20:08 51°16.266 2°54.06 71 0.8 281 10.7
2005-04-28 07:20:13 51°16.267 2°54.058 70.8 0.8 279 10.8
2005-04-28 07:20:18 51°16.267 2°54.056 70.6 0.8 286 10.8
2005-04-28 07:20:23 51°16.267 2°54.055 70.5 0.8 285 10.8
2005-04-28 07:20:28 51°16.268 2°54.053 70.4 0.8 285 10.8
2005-04-28 07:20:33 51°16.268 2°54.051 70.3 0.8 279 10.8
2005-04-28 07:20:38 51°16.268 2°54.049 70.3 0.8 279 10.8
2005-04-28 07:20:43 51°16.268 2°54.048 70.4 0.8 279 10.9
2005-04-28 07:20:48 51°16.269 2°54.046 70.2 0.8 282 10.9
2005-04-28 07:20:53 51°16.269 2°54.045 70.2 0.8 282 10.8
2005-04-28 07:20:58 51°16.269 2°54.043 70.2 0.8 282 10.8
2005-04-28 07:21:04 51°16.269 2°54.041 70.2 0.8 278 10.8
2005-04-28 07:21:08 51°16.27 2°54.039 70.1 0.8 278 10.8
2005-04-28 07:21:13 51°16.27 2°54.038 70 0.8 280 10.8
2005-04-28 07:21:18 51°16.27 2°54.036 70 0.8 280 10.8
2005-04-28 07:21:23 51°16.27 2°54.034 70 0.8 288 10.8
2005-04-28 07:21:28 51°16.271 2°54.033 70 0.8 281 10.8
2005-04-28 07:21:32 51°16.271 2°54.032 70 0.7 283 10.8
2005-04-28 07:21:38 51°16.271 2°54.029 70 0.7 283 10.8
2005-04-28 07:21:43 51°16.271 2°54.027 70.1 0.8 285 10.8
2005-04-28 07:21:48 51°16.271 2°54.026 70.2 0.8 280 10.8
2005-04-28 07:21:52 51°16.271 2°54.024 70.4 0.7 274 10.8
2005-04-28 07:21:58 51°16.272 2°54.023 70.4 0.7 274 10.9
2005-04-28 07:22:03 51°16.272 2°54.021 70.5 0.8 280 10.8
2005-04-28 07:22:08 51°16.272 2°54.019 70.8 0.8 277 10.8
2005-04-28 07:22:13 51°16.272 2°54.017 70.9 0.8 279 10.8
2005-04-28 07:22:18 51°16.273 2°54.016 71.1 0.8 279 10.8
2005-04-28 07:22:23 51°16.273 2°54.015 71.1 0.8 279 10.8
2005-04-28 07:22:28 51°16.273 2°54.013 71.2 0.8 285 10.8
2005-04-28 07:22:33 51°16.273 2°54.011 71.4 0.8 285 10.7
2005-04-28 07:22:38 51°16.273 2°54.009 71.6 0.8 279 10.8
2005-04-28 07:22:43 51°16.274 2°54.008 71.7 0.8 279 10.8
2005-04-28 07:22:48 51°16.274 2°54.006 71.7 0.7 284 10.8
2005-04-28 07:22:53 51°16.274 2°54.005 71.8 0.7 288 10.8
2005-04-28 07:22:58 51°16.274 2°54.003 71.9 0.7 288 10.7
2005-04-28 07:23:03 51°16.274 2°54.002 72.1 0.7 284 10.8
2005-04-28 07:23:08 51°16.275 2°54.001 72.1 0.6 293 10.7
2005-04-28 07:23:13 51°16.275 2°54.001 71.7 0.4 329 10.8
2005-04-28 07:23:18 51°16.276 2°54.001 70.5 0.4 342 10.8
2005-04-28 07:23:23 51°16.277 2°54.002 69.2 0.8 29 10.7
2005-04-28 07:23:28 51°16.279 2°54.004 67.7 0.8 29 10.8
2005-04-28 07:23:33 51°16.281 2°54.008 65.1 1.9 44 10.7
2005-04-28 07:23:38 51°16.284 2°54.012 60.2 2.4 41 10.8
2005-04-28 07:23:43 51°16.288 2°54.016 56 2.9 38 10.7
2005-04-28 07:23:48 51°16.293 2°54.02 50.1 3.6 30 10.8
2005-04-28 07:23:53 51°16.298 2°54.023 43.8 3.8 28 10.7
2005-04-28 07:23:58 51°16.304 2°54.025 36.7 4.7 17 10.7
2005-04-28 07:24:03 51°16.312 2°54.026 27.5 4.7 17 10.7
2005-04-28 07:24:08 51°16.321 2°54.025 21.2 4.7 17 10.7
2005-04-28 07:24:13 51°16.329 2°54.023 13.3 4.7 17 10.8
2005-04-28 07:24:18 51°16.337 2°54.019 5.6 6.4 350 10.7
2005-04-28 07:24:24 51°16.348 2°54.011 356.3 6.9 338 10.7
2005-04-28 07:24:28 51°16.356 2°54.003 348.3 7.1 336 10.8
2005-04-28 07:24:33 51°16.365 2°53.994 342.5 7.4 330 10.7
2005-04-28 07:24:38 51°16.373 2°53.984 338.5 8 327 10.8
2005-04-28 07:24:43 51°16.384 2°53.972 337.1 8.3 326 10.8
2005-04-28 07:24:48 51°16.394 2°53.96 335 8.3 326 10.7
2005-04-28 07:24:53 51°16.405 2°53.946 333.2 8.3 326 10.8
2005-04-28 07:24:58 51°16.416 2°53.93 331.8 8.3 326 10.8
2005-04-28 07:25:03 51°16.426 2°53.915 329.5 10.8 318 10.7
2005-04-28 07:25:08 51°16.439 2°53.895 326.7 11.6 317 10.8
2005-04-28 07:25:13 51°16.451 2°53.875 325.3 12.1 315 10.8
2005-04-28 07:25:18 51°16.464 2°53.855 323.9 12.1 315 10.8
2005-04-28 07:25:22 51°16.474 2°53.837 322.9 12.8 314 10.7
2005-04-28 07:25:28 51°16.488 2°53.811 322.1 12.8 314 10.7
2005-04-28 07:25:32 51°16.498 2°53.794 321.3 12.8 314 10.8
2005-04-28 07:25:38 51°16.512 2°53.769 321.1 13.5 312 10.8
2005-04-28 07:25:43 51°16.527 2°53.745 321 13.7 312 10.8
2005-04-28 07:25:48 51°16.54 2°53.722 321.1 13.7 312 10.8
2005-04-28 07:25:53 51°16.553 2°53.7 321.4 13.9 312 10.8
2005-04-28 07:25:58 51°16.567 2°53.677 321.5 14 313 10.8
2005-04-28 07:26:03 51°16.58 2°53.655 321.4 14 313 10.8
2005-04-28 07:26:08 51°16.593 2°53.632 321.2 14 313 10.8
2005-04-28 07:26:13 51°16.606 2°53.609 321.3 14 313 10.9
2005-04-28 07:26:18 51°16.618 2°53.589 321.5 14 313 10.8
2005-04-28 07:26:22 51°16.631 2°53.569 321.8 14.1 314 10.8
2005-04-28 07:26:28 51°16.647 2°53.542 322 14.2 314 10.8
2005-04-28 07:26:33 51°16.66 2°53.519 322 14.2 313 10.7
2005-04-28 07:26:38 51°16.672 2°53.499 321.8 14.1 313 10.7
2005-04-28 07:26:43 51°16.686 2°53.474 321.8 14.1 313 10.7
2005-04-28 07:26:48 51°16.7 2°53.451 321.7 14.1 314 10.5
2005-04-28 07:26:53 51°16.714 2°53.429 322 14.2 314 10.6
2005-04-28 07:26:58 51°16.727 2°53.406 322.1 14.1 314 10.4
2005-04-28 07:27:03 51°16.74 2°53.383 321.8 14.1 313 10.3
2005-04-28 07:27:08 51°16.753 2°53.36 321.2 14.1 313 10.3
2005-04-28 07:27:13 51°16.767 2°53.337 321.2 14.1 313 10.3
2005-04-28 07:27:18 51°16.78 2°53.315 321.6 14.1 313 10.2
2005-04-28 07:27:23 51°16.793 2°53.292 321.6 13.9 313 10.1
2005-04-28 07:27:28 51°16.806 2°53.269 321.5 13.9 313 10.1
2005-04-28 07:27:33 51°16.82 2°53.246 321.3 13.9 313 10
2005-04-28 07:27:38 51°16.833 2°53.224 321.9 13.9 313 9.7
2005-04-28 07:27:43 51°16.846 2°53.204 322.4 14 314 9.4
2005-04-28 07:27:48 51°16.86 2°53.18 322.5 13.9 313 8.9
2005-04-28 07:27:53 51°16.873 2°53.157 322.4 13.9 313 8.1
2005-04-28 07:27:58 51°16.886 2°53.136 322.2 13.7 313 7.6
2005-04-28 07:28:03 51°16.899 2°53.115 322.2 13.5 314 7.4
2005-04-28 07:28:08 51°16.911 2°53.094 322.5 13.2 314 7.4
2005-04-28 07:28:13 51°16.923 2°53.076 323.1 13 315 7.5
2005-04-28 07:28:17 51°16.935 2°53.058 323.8 13 315 7.2
2005-04-28 07:28:24 51°16.952 2°53.033 324.6 13.1 317 7.3
2005-04-28 07:28:28 51°16.965 2°53.016 325.7 13.2 318 7.5
2005-04-28 07:28:33 51°16.979 2°52.996 326.4 13.2 318 7.5
2005-04-28 07:28:38 51°16.991 2°52.978 326.9 13.2 318 7.6
2005-04-28 07:28:43 51°17.006 2°52.956 326.7 13.4 317 7.7
2005-04-28 07:28:48 51°17.019 2°52.935 325.9 13.4 317 7.7
2005-04-28 07:28:54 51°17.033 2°52.911 324.9 13.4 317 8
2005-04-28 07:28:58 51°17.045 2°52.89 322.9 13.6 313 8.2
2005-04-28 07:29:03 51°17.056 2°52.866 320.1 13.8 309 8.5
2005-04-28 07:29:08 51°17.068 2°52.841 317.8 13.9 308 8.6
2005-04-28 07:29:12 51°17.077 2°52.821 315.6 13.9 308 8.8
2005-04-28 07:29:18 51°17.091 2°52.793 314.2 14.1 307 8.8
2005-04-28 07:29:23 51°17.104 2°52.766 313.8 14.2 307 8.9
2005-04-28 07:29:29 51°17.118 2°52.739 314.2 14.2 307 9
2005-04-28 07:29:33 51°17.129 2°52.718 315.8 14.3 311 8.8
2005-04-28 07:29:38 51°17.142 2°52.694 317.7 14.2 312 8.6
2005-04-28 07:29:43 51°17.156 2°52.671 319.3 14.1 312 8.4
2005-04-28 07:29:48 51°17.169 2°52.649 320.5 14.1 312 8.7
2005-04-28 07:29:54 51°17.184 2°52.626 321.3 14.1 312 8.6
2005-04-28 07:29:58 51°17.195 2°52.608 321.9 14.1 312 8.6
2005-04-28 07:30:03 51°17.21 2°52.583 322.2 14.1 312 8.8
2005-04-28 07:30:08 51°17.223 2°52.56 322.1 14 313 8.9
2005-04-28 07:30:13 51°17.236 2°52.537 321.5 14.1 313 8.8
2005-04-28 07:30:18 51°17.248 2°52.516 320.4 14.1 313 8.9
2005-04-28 07:30:23 51°17.262 2°52.491 319.4 14.2 312 8.9
2005-04-28 07:30:28 51°17.276 2°52.468 319.3 14.2 312 9.1
2005-04-28 07:30:32 51°17.287 2°52.45 319.3 14.2 313 9.2
2005-04-28 07:30:38 51°17.303 2°52.422 320 14.3 314 9.2
2005-04-28 07:30:44 51°17.319 2°52.399 320.9 14.3 315 9.1
2005-04-28 07:30:48 51°17.332 2°52.38 323 14.2 317 9.2
2005-04-28 07:30:53 51°17.347 2°52.359 324.6 14.2 319 9.3
2005-04-28 07:30:58 51°17.362 2°52.339 325.9 14.2 319 9.5
2005-04-28 07:31:03 51°17.375 2°52.321 326.7 14.2 320 9.3
2005-04-28 07:31:09 51°17.393 2°52.296 327.1 14.2 320 9.4
2005-04-28 07:31:13 51°17.405 2°52.28 327.3 14.1 320 9.4
2005-04-28 07:31:18 51°17.421 2°52.257 326.8 14.1 320 9.4
2005-04-28 07:31:23 51°17.436 2°52.236 326.3 14.2 319 9.4
2005-04-28 07:31:28 51°17.45 2°52.215 325.7 14.1 317 9.5
2005-04-28 07:31:33 51°17.464 2°52.194 325.5 14.1 317 9.4
2005-04-28 07:31:38 51°17.477 2°52.175 325.5 14.1 318 9.4
2005-04-28 07:31:43 51°17.493 2°52.152 325.5 14.1 318 9.5
2005-04-28 07:31:49 51°17.509 2°52.129 325.7 14.1 318 9.5
2005-04-28 07:31:53 51°17.522 2°52.11 325.9 14.1 318 9.5
2005-04-28 07:31:58 51°17.537 2°52.089 326 14.1 318 9.4
2005-04-28 07:32:03 51°17.551 2°52.069 326 14.1 318 9.4
2005-04-28 07:32:08 51°17.566 2°52.048 325.9 14.1 318 9.5
2005-04-28 07:32:13 51°17.58 2°52.027 325.8 14.1 318 9.3
2005-04-28 07:32:18 51°17.594 2°52.009 325.8 14.1 318 9.4
2005-04-28 07:32:22 51°17.607 2°51.99 325.8 14 318 9.4
2005-04-28 07:32:28 51°17.624 2°51.966 326 14 319 9.4
2005-04-28 07:32:33 51°17.639 2°51.945 326.5 14 319 9.3
2005-04-28 07:32:38 51°17.653 2°51.925 326.6 14 319 9.3
2005-04-28 07:32:43 51°17.666 2°51.907 326.8 14 319 9.2
2005-04-28 07:32:48 51°17.682 2°51.884 326.8 14 319 9.2
2005-04-28 07:32:53 51°17.697 2°51.864 326.8 13.9 318 9.3
2005-04-28 07:32:58 51°17.711 2°51.843 326.7 13.9 318 9.2
2005-04-28 07:33:04 51°17.727 2°51.821 326.6 13.9 318 9.2
2005-04-28 07:33:08 51°17.74 2°51.802 326.5 13.9 318 9.1
2005-04-28 07:33:13 51°17.754 2°51.781 326.1 13.9 318 9.1
2005-04-28 07:33:18 51°17.766 2°51.762 325.7 13.9 317 9.1
2005-04-28 07:33:22 51°17.779 2°51.744 325.6 13.9 317 9.1
2005-04-28 07:33:28 51°17.796 2°51.719 325.6 13.9 318 9
2005-04-28 07:33:33 51°17.811 2°51.698 325.8 14 317 9.1
2005-04-28 07:33:38 51°17.825 2°51.677 326.3 14 318 9.1
2005-04-28 07:33:43 51°17.838 2°51.659 326.5 14 318 9.1
2005-04-28 07:33:49 51°17.855 2°51.634 326.6 14 318 9.2
2005-04-28 07:33:53 51°17.868 2°51.615 326.6 14 318 9.3
2005-04-28 07:33:58 51°17.883 2°51.595 326.6 14 318 9.3
2005-04-28 07:34:03 51°17.898 2°51.575 326.8 14 319 9.3
2005-04-28 07:34:08 51°17.912 2°51.554 326.9 14 319 9.4
2005-04-28 07:34:13 51°17.927 2°51.533 327 14 318 9.4
2005-04-28 07:34:18 51°17.94 2°51.514 327 14.1 318 9.4
2005-04-28 07:34:22 51°17.953 2°51.494 326.5 14.1 317 9.6
2005-04-28 07:34:28 51°17.97 2°51.469 326 14.2 317 9.6
2005-04-28 07:34:33 51°17.984 2°51.449 325.7 14.2 317 9.7
2005-04-28 07:34:38 51°17.998 2°51.427 325.4 14.2 317 9.9
2005-04-28 07:34:43 51°18.014 2°51.403 325.4 14.2 317 9.9
2005-04-28 07:34:48 51°18.029 2°51.382 325.5 14.3 317 10.1
2005-04-28 07:34:53 51°18.042 2°51.363 326 14.3 318 10.2
2005-04-28 07:34:58 51°18.057 2°51.343 326.7 14.3 318 10.4
2005-04-28 07:35:03 51°18.073 2°51.32 327 14.3 319 10.4
2005-04-28 07:35:08 51°18.088 2°51.299 327.2 14.3 319 10.5
2005-04-28 07:35:13 51°18.102 2°51.28 327.1 14.3 318 10.7
2005-04-28 07:35:18 51°18.117 2°51.259 327.3 14.3 319 10.9
2005-04-28 07:35:23 51°18.134 2°51.237 327.8 14.3 320 11
2005-04-28 07:35:28 51°18.149 2°51.217 328.6 14.3 320 11.1
2005-04-28 07:35:33 51°18.163 2°51.199 329.1 14.3 321 11.2
2005-04-28 07:35:38 51°18.18 2°51.177 329.4 14.3 321 11.4
2005-04-28 07:35:42 51°18.191 2°51.163 329.6 14.3 321 11.4
2005-04-28 07:35:48 51°18.21 2°51.138 329.8 14.3 321 11.5
2005-04-28 07:35:53 51°18.225 2°51.12 329.7 14.2 321 11.6
2005-04-28 07:35:58 51°18.237 2°51.103 329.7 14.2 321 11.7
2005-04-28 07:36:03 51°18.252 2°51.085 329.7 14.2 321 11.7
2005-04-28 07:36:08 51°18.263 2°51.071 330.1 14.2 321 11.9
2005-04-28 07:36:13 51°18.275 2°51.057 330.8 10.9 324 12
2005-04-28 07:36:18 51°18.287 2°51.045 332.2 10.7 324 12.2
2005-04-28 07:36:23 51°18.299 2°51.036 335 10.1 330 12.2
2005-04-28 07:36:28 51°18.312 2°51.028 341.1 10.1 330 12.3
2005-04-28 07:36:33 51°18.324 2°51.023 348.9 8.8 343 12.3
2005-04-28 07:36:38 51°18.335 2°51.019 352.9 8.5 346 12.4
2005-04-28 07:36:42 51°18.342 2°51.017 358.2 8 350 12.4
2005-04-28 07:36:48 51°18.356 2°51.014 2.1 8 350 12.5
2005-04-28 07:36:53 51°18.366 2°51.013 5 7.8 353 12.5
2005-04-28 07:36:58 51°18.377 2°51.013 7.5 7.8 353 12.6
2005-04-28 07:37:03 51°18.387 2°51.013 9.9 7.4 358 12.6
2005-04-28 07:37:08 51°18.397 2°51.014 11.5 7.2 -999 12.6
2005-04-28 07:37:13 51°18.405 2°51.015 13.8 7 2 12.6
2005-04-28 07:37:18 51°18.415 2°51.016 16.2 6.9 4 12.7
2005-04-28 07:37:23 51°18.425 2°51.019 18.4 6.8 6 12.7
2005-04-28 07:37:28 51°18.433 2°51.021 20.4 6.8 6 12.8
2005-04-28 07:37:32 51°18.439 2°51.023 22.1 6 10 12.8
2005-04-28 07:37:37 51°18.446 2°51.026 24.1 5.4 12 12.8
2005-04-28 07:37:43 51°18.453 2°51.029 26.9 4.9 15 12.8
2005-04-28 07:37:48 51°18.458 2°51.032 31 4.2 19 12.9
2005-04-28 07:37:53 51°18.462 2°51.035 34.6 3.6 22 12.9
2005-04-28 07:37:58 51°18.466 2°51.038 39.1 3.1 24 12.9
2005-04-28 07:38:02 51°18.468 2°51.039 43.7 2.4 25 12.9
2005-04-28 07:38:08 51°18.471 2°51.041 49.7 2.4 25 12.9
2005-04-28 07:38:13 51°18.472 2°51.042 54.9 1.6 24 12.9
2005-04-28 07:38:18 51°18.473 2°51.041 59.4 1.6 24 12.9
2005-04-28 07:38:23 51°18.473 2°51.039 64.5 1.6 24 12.9
2005-04-28 07:38:28 51°18.474 2°51.037 68.1 1.6 24 12.8
2005-04-28 07:38:33 51°18.475 2°51.036 69.6 0.9 288 12.9
2005-04-28 07:38:38 51°18.476 2°51.033 70.4 0.9 294 12.9
2005-04-28 07:38:43 51°18.476 2°51.031 71.5 0.9 292 12.9
2005-04-28 07:38:48 51°18.477 2°51.029 72.4 1 291 12.8
2005-04-28 07:38:53 51°18.477 2°51.027 73.1 0.9 289 12.9
2005-04-28 07:38:58 51°18.478 2°51.026 73.3 0.9 289 12.9
2005-04-28 07:39:03 51°18.478 2°51.024 73.5 0.9 288 12.9
2005-04-28 07:39:08 51°18.479 2°51.023 73.6 0.9 290 12.9
2005-04-28 07:39:13 51°18.48 2°51.021 73.6 0.8 292 13
2005-04-28 07:39:18 51°18.48 2°51.02 73.3 0.9 293 12.9
2005-04-28 07:39:23 51°18.48 2°51.017 72.9 0.9 293 12.9
2005-04-28 07:39:28 51°18.481 2°51.015 72.3 0.9 291 13
2005-04-28 07:39:33 51°18.481 2°51.014 71.5 0.9 299 13
2005-04-28 07:39:38 51°18.482 2°51.012 71.1 0.8 293 12.9
2005-04-28 07:39:43 51°18.482 2°51.01 70.4 0.8 293 13
2005-04-28 07:39:48 51°18.483 2°51.008 69.8 0.8 292 12.9
2005-04-28 07:39:53 51°18.483 2°51.007 69.2 0.8 291 13
2005-04-28 07:39:58 51°18.484 2°51.005 68.7 0.8 292 12.9
2005-04-28 07:40:03 51°18.484 2°51.003 68.2 0.9 296 12.9
2005-04-28 07:40:08 51°18.485 2°51.001 67.7 0.9 296 13
2005-04-28 07:40:13 51°18.485 2°51 67.3 0.9 298 13
2005-04-28 07:40:18 51°18.486 2°50.998 67.1 0.9 298 12.9
2005-04-28 07:40:23 51°18.486 2°50.996 67 0.9 298 12.9
2005-04-28 07:40:28 51°18.487 2°50.994 67 0.8 298 12.9
2005-04-28 07:40:33 51°18.487 2°50.993 67 0.8 298 12.9
2005-04-28 07:40:38 51°18.488 2°50.991 67.2 0.8 298 12.9
2005-04-28 07:40:43 51°18.488 2°50.989 67.6 0.9 301 13
2005-04-28 07:40:48 51°18.489 2°50.988 68.1 0.9 301 13
2005-04-28 07:40:53 51°18.489 2°50.986 68.6 0.9 297 13
2005-04-28 07:40:58 51°18.49 2°50.984 69.1 0.9 296 13
2005-04-28 07:41:03 51°18.49 2°50.983 69.8 0.9 296 12.9
2005-04-28 07:41:08 51°18.491 2°50.981 70.4 0.9 296 13
2005-04-28 07:41:12 51°18.491 2°50.979 70.9 0.9 300 12.9
2005-04-28 07:41:18 51°18.492 2°50.977 71.4 0.9 300 13
2005-04-28 07:41:23 51°18.492 2°50.976 71.8 0.9 300 12.9
2005-04-28 07:41:28 51°18.493 2°50.974 72.5 0.9 300 13
2005-04-28 07:41:32 51°18.493 2°50.973 72.9 0.9 299 13
2005-04-28 07:41:38 51°18.494 2°50.971 73.6 0.9 299 12.9
2005-04-28 07:41:43 51°18.495 2°50.969 74.4 0.8 302 13
2005-04-28 07:41:48 51°18.495 2°50.967 75.1 0.8 302 13
2005-04-28 07:41:52 51°18.495 2°50.966 75.9 0.8 300 13
2005-04-28 07:41:58 51°18.496 2°50.964 76.6 0.8 300 13
2005-04-28 07:42:03 51°18.496 2°50.963 77.1 0.8 300 13
2005-04-28 07:42:08 51°18.497 2°50.961 77.9 0.8 295 13
2005-04-28 07:42:13 51°18.497 2°50.959 78.5 0.8 297 13
2005-04-28 07:42:18 51°18.498 2°50.958 79.2 0.8 297 13
2005-04-28 07:42:23 51°18.498 2°50.956 79.8 0.8 297 13
2005-04-28 07:42:28 51°18.499 2°50.954 80.5 0.8 300 13
2005-04-28 07:42:33 51°18.499 2°50.953 80.7 0.8 298 13
2005-04-28 07:42:38 51°18.499 2°50.951 81.3 0.8 298 13
2005-04-28 07:42:43 51°18.5 2°50.949 81.8 0.8 298 13
2005-04-28 07:42:48 51°18.501 2°50.948 82.2 0.8 296 13
2005-04-28 07:42:52 51°18.501 2°50.947 82.9 0.8 295 13.1
2005-04-28 07:42:58 51°18.501 2°50.945 83.5 0.8 296 13.1
2005-04-28 07:43:03 51°18.502 2°50.943 84 0.8 294 13.1
2005-04-28 07:43:08 51°18.503 2°50.942 84.7 0.8 297 13.1
2005-04-28 07:43:13 51°18.503 2°50.94 85.2 0.8 297 13
2005-04-28 07:43:18 51°18.504 2°50.938 85.8 0.8 297 13.1
2005-04-28 07:43:23 51°18.504 2°50.937 86.3 0.8 298 13.1
2005-04-28 07:43:28 51°18.505 2°50.935 87 0.8 298 13
2005-04-28 07:43:33 51°18.506 2°50.934 87.6 0.8 296 13
2005-04-28 07:43:38 51°18.506 2°50.932 88.3 0.8 299 13
2005-04-28 07:43:43 51°18.507 2°50.93 88.7 0.8 299 13
2005-04-28 07:43:48 51°18.507 2°50.929 89.2 0.8 299 13
2005-04-28 07:43:52 51°18.507 2°50.928 89.9 0.8 298 13
2005-04-28 07:43:58 51°18.508 2°50.926 90.2 0.8 298 13.1
2005-04-28 07:44:03 51°18.508 2°50.924 90.9 0.8 298 13
2005-04-28 07:44:08 51°18.509 2°50.923 91.3 0.7 298 13.1
2005-04-28 07:44:13 51°18.509 2°50.922 91.8 0.7 298 13.1
2005-04-28 07:44:18 51°18.51 2°50.92 92.2 0.7 298 13
2005-04-28 07:44:23 51°18.51 2°50.919 92.6 0.7 292 13.1
2005-04-28 07:44:28 51°18.511 2°50.918 92.9 0.7 292 13
2005-04-28 07:44:33 51°18.511 2°50.917 93.2 0.7 302 13.1
2005-04-28 07:44:38 51°18.512 2°50.916 93.7 0.6 297 13.1
2005-04-28 07:44:43 51°18.512 2°50.914 94.1 0.6 297 13.1
2005-04-28 07:44:48 51°18.513 2°50.913 94.4 0.6 297 13.1
2005-04-28 07:44:52 51°18.513 2°50.913 94.8 0.6 301 13.1
2005-04-28 07:44:58 51°18.513 2°50.911 95 0.6 301 13.1
2005-04-28 07:45:03 51°18.514 2°50.91 95 0.6 301 13.1
2005-04-28 07:45:08 51°18.514 2°50.909 94.8 0.5 300 13.1
2005-04-28 07:45:13 51°18.514 2°50.908 94.7 0.5 300 13.1
2005-04-28 07:45:18 51°18.515 2°50.907 94.2 0.5 300 13.1
2005-04-28 07:45:23 51°18.515 2°50.907 93.7 0.5 300 13.1
2005-04-28 07:45:28 51°18.516 2°50.906 93 0.5 300 13.1
2005-04-28 07:45:33 51°18.516 2°50.906 92.5 0.4 323 13.1
2005-04-28 07:45:38 51°18.517 2°50.905 91.4 0.5 326 13.1
2005-04-28 07:45:43 51°18.517 2°50.904 90.8 0.5 326 13.1
2005-04-28 07:45:48 51°18.517 2°50.904 90.3 0.5 326 13
2005-04-28 07:45:52 51°18.518 2°50.903 89.7 0.3 316 13.1
2005-04-28 07:45:58 51°18.518 2°50.903 89.1 0.3 316 13.1
2005-04-28 07:46:03 51°18.519 2°50.903 88.5 0.4 340 13.1
2005-04-28 07:46:08 51°18.519 2°50.902 87.8 0.4 340 13.1
2005-04-28 07:46:13 51°18.52 2°50.902 87.1 0.3 343 13
2005-04-28 07:46:18 51°18.52 2°50.902 86.4 0.3 343 13.1
2005-04-28 07:46:23 51°18.521 2°50.902 85.6 0.3 347 13.1
2005-04-28 07:46:28 51°18.521 2°50.902 84.9 0.4 349 13.2
2005-04-28 07:46:33 51°18.522 2°50.901 84.2 0.4 356 13.2
2005-04-28 07:46:38 51°18.522 2°50.901 83.4 0.4 356 13.1
2005-04-28 07:46:43 51°18.523 2°50.901 82.7 0.4 356 13.2
2005-04-28 07:46:48 51°18.524 2°50.902 82 0.4 5 13.1
2005-04-28 07:46:53 51°18.524 2°50.902 81.1 0.4 4 13.1
2005-04-28 07:46:58 51°18.525 2°50.902 80.2 0.4 6 13.1
2005-04-28 07:47:03 51°18.525 2°50.902 79.6 0.4 5 13.1
2005-04-28 07:47:08 51°18.526 2°50.902 79.1 0.4 7 13.1
2005-04-28 07:47:12 51°18.526 2°50.902 79.1 0.5 9 13.1
2005-04-28 07:47:18 51°18.527 2°50.903 79.1 0.5 9 13.1
2005-04-28 07:47:23 51°18.528 2°50.904 79.1 0.5 9 13
2005-04-28 07:47:28 51°18.529 2°50.904 79.4 0.5 28 13.1
2005-04-28 07:47:33 51°18.53 2°50.904 79.7 0.5 28 13.1
2005-04-28 07:47:38 51°18.53 2°50.905 79.9 0.5 28 13
2005-04-28 07:47:43 51°18.531 2°50.906 80.3 0.5 28 13.1
2005-04-28 07:47:48 51°18.531 2°50.906 80.8 0.5 28 13.1
2005-04-28 07:47:53 51°18.532 2°50.907 81.1 0.6 27 13.1
2005-04-28 07:47:58 51°18.533 2°50.907 81.3 0.6 31 13.1
2005-04-28 07:48:03 51°18.533 2°50.908 81.6 0.6 32 13.1
2005-04-28 07:48:08 51°18.534 2°50.909 81.7 0.6 36 13.1
2005-04-28 07:48:13 51°18.535 2°50.91 81.9 0.6 38 13.1
2005-04-28 07:48:18 51°18.535 2°50.911 82.1 0.6 37 13.1
2005-04-28 07:48:22 51°18.536 2°50.911 82.3 0.6 41 13.1
2005-04-28 07:48:28 51°18.537 2°50.912 82.7 0.6 41 13.1
2005-04-28 07:48:33 51°18.537 2°50.913 83 0.6 37 13.1
2005-04-28 07:48:38 51°18.538 2°50.914 83.1 0.6 37 13.1
2005-04-28 07:48:43 51°18.538 2°50.915 83.3 0.6 37 13.1
2005-04-28 07:48:48 51°18.539 2°50.916 83.6 0.6 37 13.1
2005-04-28 07:48:53 51°18.54 2°50.917 83.7 0.6 45 13.1
2005-04-28 07:48:58 51°18.54 2°50.918 84.1 0.6 43 13.1
2005-04-28 07:49:03 51°18.541 2°50.919 84.1 0.6 46 13.1
2005-04-28 07:49:08 51°18.541 2°50.92 84.5 0.7 43 13.1
2005-04-28 07:49:13 51°18.542 2°50.921 84.6 0.6 46 13
2005-04-28 07:49:18 51°18.543 2°50.922 84.9 0.6 46 13.1
2005-04-28 07:49:24 51°18.543 2°50.923 85.1 0.6 39 13.1
2005-04-28 07:49:28 51°18.544 2°50.924 85.5 0.6 39 13
2005-04-28 07:49:33 51°18.545 2°50.925 85.6 0.6 39 13.1
2005-04-28 07:49:38 51°18.545 2°50.925 85.9 0.6 42 13.1
2005-04-28 07:49:43 51°18.545 2°50.926 86.3 0.6 42 13.1
2005-04-28 07:49:49 51°18.546 2°50.927 86.4 0.6 42 13.1
2005-04-28 07:49:52 51°18.546 2°50.927 86.7 0.5 49 13.1
2005-04-28 07:49:58 51°18.547 2°50.928 86.9 0.5 49 13.1
2005-04-28 07:50:03 51°18.547 2°50.929 87 0.5 49 13
2005-04-28 07:50:08 51°18.548 2°50.93 87.3 0.5 49 13.1
2005-04-28 07:50:13 51°18.548 2°50.931 87.8 0.5 43 13.1
2005-04-28 07:50:18 51°18.549 2°50.932 87.9 0.5 43 13.1
2005-04-28 07:50:23 51°18.549 2°50.933 88.2 0.5 46 13.1
2005-04-28 07:50:28 51°18.549 2°50.933 88.5 0.5 51 13
2005-04-28 07:50:33 51°18.55 2°50.934 88.7 0.5 55 13.1
2005-04-28 07:50:38 51°18.55 2°50.935 89 0.5 55 13
2005-04-28 07:50:43 51°18.551 2°50.936 89.3 0.4 52 13.1
2005-04-28 07:50:48 51°18.552 2°50.937 89.5 0.4 52 13.2
2005-04-28 07:50:53 51°18.552 2°50.937 89.8 0.5 50 13
2005-04-28 07:50:58 51°18.552 2°50.938 90 0.4 45 13
2005-04-28 07:51:03 51°18.553 2°50.939 90.3 0.4 43 13
2005-04-28 07:51:08 51°18.553 2°50.939 90.6 0.4 43 13.1
2005-04-28 07:51:13 51°18.553 2°50.94 90.9 0.4 47 13.1
2005-04-28 07:51:18 51°18.554 2°50.941 91.1 0.4 47 13.1
2005-04-28 07:51:23 51°18.554 2°50.942 91.3 0.4 43 13.1
2005-04-28 07:51:28 51°18.554 2°50.942 91.4 0.4 43 13.1
2005-04-28 07:51:33 51°18.555 2°50.943 91.5 0.4 50 13.1
2005-04-28 07:51:38 51°18.555 2°50.944 91.7 0.4 57 13.1
2005-04-28 07:51:42 51°18.555 2°50.945 91.9 0.4 54 13.1
2005-04-28 07:51:48 51°18.556 2°50.946 92 0.4 54 13.1
2005-04-28 07:51:53 51°18.556 2°50.946 92.1 0.4 46 13.1
2005-04-28 07:51:58 51°18.557 2°50.947 92.3 0.4 46 13.2
2005-04-28 07:52:03 51°18.557 2°50.948 92.4 0.4 49 13.1
2005-04-28 07:52:08 51°18.557 2°50.948 92.5 0.3 58 13
2005-04-28 07:52:13 51°18.558 2°50.949 92.7 0.3 43 13
2005-04-28 07:52:18 51°18.558 2°50.949 92.9 0.3 37 13.1
2005-04-28 07:52:23 51°18.558 2°50.95 92.9 0.3 49 13
2005-04-28 07:52:28 51°18.559 2°50.951 93 0.3 49 13.1
2005-04-28 07:52:32 51°18.559 2°50.951 93.1 0.4 57 13
2005-04-28 07:52:38 51°18.559 2°50.952 93.1 0.3 56 13
2005-04-28 07:52:43 51°18.56 2°50.953 93.3 0.3 55 13
2005-04-28 07:52:48 51°18.56 2°50.953 93.3 0.3 50 13.1
2005-04-28 07:52:53 51°18.56 2°50.954 93.4 0.3 32 13
2005-04-28 07:52:58 51°18.561 2°50.954 93.5 0.2 37 13
2005-04-28 07:53:02 51°18.561 2°50.954 93.6 0.2 31 13
2005-04-28 07:53:08 51°18.561 2°50.954 93.6 0.2 31 13
2005-04-28 07:53:13 51°18.561 2°50.955 93.5 0.2 23 13
2005-04-28 07:53:18 51°18.562 2°50.955 93.5 0.2 21 13
2005-04-28 07:53:23 51°18.562 2°50.955 93.5 0.2 21 13
2005-04-28 07:53:28 51°18.563 2°50.955 93.3 0.2 21 13.1
2005-04-28 07:53:32 51°18.563 2°50.955 93.3 0.2 2 13
2005-04-28 07:53:38 51°18.563 2°50.955 93.5 0.2 2 13
2005-04-28 07:53:43 51°18.564 2°50.955 93.6 0.2 347 13
2005-04-28 07:53:48 51°18.564 2°50.955 93.6 0.2 336 13.1
2005-04-28 07:53:53 51°18.565 2°50.955 93.9 0.2 336 13.1
2005-04-28 07:53:58 51°18.565 2°50.954 94.1 0.2 315 13.1
2005-04-28 07:54:03 51°18.565 2°50.954 94.3 0.2 301 13.1
2005-04-28 07:54:08 51°18.565 2°50.953 94.4 0.2 304 13.1
2005-04-28 07:54:12 51°18.565 2°50.953 94.6 0.2 304 13
2005-04-28 07:54:18 51°18.566 2°50.953 94.6 0.2 304 13
2005-04-28 07:54:23 51°18.566 2°50.952 94.7 0.2 304 13
2005-04-28 07:54:28 51°18.566 2°50.951 94.8 0.3 299 13
2005-04-28 07:54:32 51°18.567 2°50.951 94.9 0.3 289 13
2005-04-28 07:54:38 51°18.567 2°50.95 95 0.3 287 13
2005-04-28 07:54:43 51°18.567 2°50.949 95 0.4 284 13
2005-04-28 07:54:48 51°18.567 2°50.949 95.2 0.4 294 13
2005-04-28 07:54:53 51°18.567 2°50.948 95.2 0.4 294 12.9
2005-04-28 07:54:58 51°18.567 2°50.947 95.2 0.4 294 13
2005-04-28 07:55:03 51°18.568 2°50.946 95.3 0.4 294 13
2005-04-28 07:55:08 51°18.568 2°50.946 95.3 0.4 294 13
2005-04-28 07:55:13 51°18.568 2°50.944 95.4 0.4 288 13
2005-04-28 07:55:18 51°18.568 2°50.944 95.6 0.4 288 13
2005-04-28 07:55:23 51°18.568 2°50.943 95.7 0.4 288 13
2005-04-28 07:55:28 51°18.568 2°50.942 95.7 0.5 287 13
2005-04-28 07:55:33 51°18.568 2°50.94 95.8 0.5 283 13
2005-04-28 07:55:38 51°18.569 2°50.94 95.8 0.5 283 13
2005-04-28 07:55:43 51°18.569 2°50.939 95.8 0.5 283 13
2005-04-28 07:55:48 51°18.569 2°50.937 95.9 0.5 278 13
2005-04-28 07:55:53 51°18.57 2°50.936 96 0.5 278 13
2005-04-28 07:55:58 51°18.57 2°50.935 96 0.5 279 13
2005-04-28 07:56:03 51°18.57 2°50.934 96.2 0.6 285 13.1
2005-04-28 07:56:08 51°18.57 2°50.933 96.3 0.6 282 13.1
2005-04-28 07:56:13 51°18.571 2°50.931 96.3 0.6 283 13.1
2005-04-28 07:56:18 51°18.571 2°50.93 96.4 0.6 278 13
2005-04-28 07:56:22 51°18.571 2°50.929 96.4 0.6 281 13
2005-04-28 07:56:28 51°18.571 2°50.927 96.4 0.6 281 13
2005-04-28 07:56:33 51°18.572 2°50.926 96.3 0.6 278 13.1
2005-04-28 07:56:38 51°18.572 2°50.925 96.4 0.6 278 13
2005-04-28 07:56:43 51°18.572 2°50.923 96.4 0.6 278 13
2005-04-28 07:56:48 51°18.572 2°50.921 96.5 0.6 278 13
2005-04-28 07:56:53 51°18.572 2°50.92 96.5 0.7 280 13.1
2005-04-28 07:56:58 51°18.572 2°50.918 96.6 0.7 280 13
2005-04-28 07:57:03 51°18.573 2°50.917 96.7 0.7 283 13.1
2005-04-28 07:57:08 51°18.572 2°50.916 96.9 0.7 287 13.1
2005-04-28 07:57:13 51°18.57 2°50.915 97 0.6 275 13.1
2005-04-28 07:57:18 51°18.569 2°50.913 97.2 0.6 282 13.1
2005-04-28 07:57:23 51°18.568 2°50.911 97.2 0.7 272 13.1
2005-04-28 07:57:28 51°18.569 2°50.91 97.2 0.7 272 13.1
2005-04-28 07:57:33 51°18.569 2°50.909 97.2 0.7 284 13.2
2005-04-28 07:57:38 51°18.57 2°50.907 97.2 0.7 284 13.1
2005-04-28 07:57:42 51°18.57 2°50.905 97.3 0.8 278 13.1
2005-04-28 07:57:48 51°18.571 2°50.903 97.3 0.8 278 13.1
2005-04-28 07:57:53 51°18.572 2°50.901 97.2 0.8 278 13.1
2005-04-28 07:57:58 51°18.572 2°50.899 97.2 0.8 278 13.1
2005-04-28 07:58:03 51°18.573 2°50.898 97.2 0.8 276 13.1
2005-04-28 07:58:08 51°18.574 2°50.896 97.2 0.8 279 13.1
2005-04-28 07:58:13 51°18.574 2°50.894 97.2 0.8 278 13.1
2005-04-28 07:58:18 51°18.574 2°50.892 97.1 0.8 278 13.1
2005-04-28 07:58:22 51°18.574 2°50.891 97.1 0.8 277 13.1
2005-04-28 07:58:28 51°18.573 2°50.889 97.1 0.8 280 13.1
2005-04-28 07:58:32 51°18.573 2°50.888 97 0.4 265 13.2
2005-04-28 07:58:38 51°18.574 2°50.889 95.8 0.2 336 13.1
2005-04-28 07:58:44 51°18.574 2°50.89 94.9 0.2 336 13.1
2005-04-28 07:58:48 51°18.575 2°50.893 94.4 0.2 336 13.1
2005-04-28 07:58:53 51°18.575 2°50.898 93.6 1.1 85 13.1
2005-04-28 07:58:58 51°18.576 2°50.904 91.7 2.5 83 13.1
2005-04-28 07:59:03 51°18.577 2°50.913 89.9 3.3 83 13
2005-04-28 07:59:08 51°18.578 2°50.924 87.6 3.3 83 13
2005-04-28 07:59:13 51°18.58 2°50.937 85.1 4.9 79 13
2005-04-28 07:59:18 51°18.582 2°50.951 82.9 4.9 79 13
2005-04-28 07:59:24 51°18.585 2°50.972 81.2 6.9 76 13
2005-04-28 07:59:28 51°18.589 2°50.989 79.9 6.9 76 12.9
2005-04-28 07:59:34 51°18.593 2°51.012 78.7 8.9 73 13
2005-04-28 07:59:38 51°18.597 2°51.032 77.7 8.9 73 12.9
2005-04-28 07:59:43 51°18.602 2°51.054 77.2 8.9 73 12.9
2005-04-28 07:59:48 51°18.607 2°51.078 76.7 8.9 73 12.8
2005-04-28 07:59:53 51°18.612 2°51.1 76.3 11.4 72 12.8
2005-04-28 07:59:58 51°18.617 2°51.125 76.3 11.4 72 12.8
2005-04-28 08:00:04 51°18.623 2°51.155 76.6 11.4 72 12.8
2005-04-28 08:00:08 51°18.628 2°51.178 76.7 11.4 72 12.8
2005-04-28 08:00:13 51°18.633 2°51.201 76.8 11.4 72 12.8
2005-04-28 08:00:18 51°18.639 2°51.229 77 11.4 72 12.8
2005-04-28 08:00:23 51°18.644 2°51.255 76.9 12.2 72 12.7
2005-04-28 08:00:28 51°18.65 2°51.281 76.8 12.3 72 12.7
2005-04-28 08:00:33 51°18.655 2°51.306 76.8 12.3 71 12.8
2005-04-28 08:00:38 51°18.66 2°51.33 76.7 12.3 72 12.7
2005-04-28 08:00:43 51°18.666 2°51.359 76.9 12.4 72 12.7
2005-04-28 08:00:48 51°18.671 2°51.384 76.7 12.4 72 12.7
2005-04-28 08:00:53 51°18.676 2°51.408 76.7 12.4 72 12.6
2005-04-28 08:00:58 51°18.681 2°51.434 76.9 12.5 72 12.6
2005-04-28 08:01:03 51°18.686 2°51.461 77 12.5 73 12.6
2005-04-28 08:01:08 51°18.691 2°51.489 77.7 12.4 73 12.6
2005-04-28 08:01:12 51°18.695 2°51.51 78 12.4 73 12.6
2005-04-28 08:01:18 51°18.701 2°51.539 78.3 12.4 73 12.5
2005-04-28 08:01:23 51°18.707 2°51.568 77.9 12.4 73 12.4
2005-04-28 08:01:28 51°18.713 2°51.594 77.4 12.4 72 12.4
2005-04-28 08:01:33 51°18.719 2°51.62 76.4 12.4 70 12.4
2005-04-28 08:01:38 51°18.724 2°51.643 75.3 12.4 69 12.4
2005-04-28 08:01:43 51°18.731 2°51.671 75 12.4 69 12.4
2005-04-28 08:01:48 51°18.737 2°51.693 74.6 12.3 69 12.3
2005-04-28 08:01:52 51°18.742 2°51.717 74.7 12.3 69 12.3
2005-04-28 08:01:58 51°18.748 2°51.745 74.9 12.4 70 12.3
2005-04-28 08:02:02 51°18.753 2°51.766 75.1 12.3 70 12.3
2005-04-28 08:02:08 51°18.76 2°51.799 75.3 12.3 70 12.2
2005-04-28 08:02:12 51°18.765 2°51.819 75.3 12.3 70 12.2
2005-04-28 08:02:18 51°18.772 2°51.848 74.8 12.3 70 12.2
2005-04-28 08:02:22 51°18.777 2°51.871 74.8 12.3 70 12.1
2005-04-28 08:02:28 51°18.784 2°51.901 74.9 12.3 70 12.1
2005-04-28 08:02:33 51°18.789 2°51.925 75.5 12.3 70 12
2005-04-28 08:02:38 51°18.795 2°51.951 76 12.4 71 12.1
2005-04-28 08:02:43 51°18.8 2°51.978 76.1 12.3 72 12
2005-04-28 08:02:48 51°18.806 2°52.004 76.5 12.3 72 12
2005-04-28 08:02:52 51°18.811 2°52.025 76.2 12.4 71 11.9
2005-04-28 08:02:58 51°18.818 2°52.053 75.8 12.4 70 11.9
2005-04-28 08:03:04 51°18.825 2°52.084 75.1 12.4 70 11.9
2005-04-28 08:03:08 51°18.83 2°52.107 74.9 12.3 70 11.8
2005-04-28 08:03:12 51°18.835 2°52.127 75 12.4 70 11.8
2005-04-28 08:03:18 51°18.841 2°52.155 75.1 12.3 70 11.7
2005-04-28 08:03:23 51°18.847 2°52.184 75.6 12.3 70 11.7
2005-04-28 08:03:28 51°18.852 2°52.209 75.7 12.3 70 11.7
2005-04-28 08:03:33 51°18.858 2°52.232 75.4 12.3 71 11.7
2005-04-28 08:03:38 51°18.864 2°52.261 75.5 12.3 71 11.6
2005-04-28 08:03:42 51°18.868 2°52.278 75.5 12.3 70 11.6
2005-04-28 08:03:48 51°18.875 2°52.312 75.5 12.2 71 11.5
2005-04-28 08:03:53 51°18.88 2°52.337 75.6 12.2 71 11.5
2005-04-28 08:03:58 51°18.886 2°52.361 75.6 12.2 71 11.5
2005-04-28 08:04:02 51°18.89 2°52.381 75.6 12.3 70 11.5
2005-04-28 08:04:08 51°18.898 2°52.415 75.6 12.3 70 11.5
2005-04-28 08:04:13 51°18.904 2°52.44 75.4 12.3 70 11.4
2005-04-28 08:04:18 51°18.909 2°52.466 75.3 12.3 70 11.3
2005-04-28 08:04:23 51°18.914 2°52.489 75.6 12.3 71 11.2
2005-04-28 08:04:28 51°18.921 2°52.517 75.6 12.3 71 11.3
2005-04-28 08:04:33 51°18.926 2°52.54 75.8 12.3 71 11.3
2005-04-28 08:04:38 51°18.932 2°52.566 75.4 12.3 71 11.1
2005-04-28 08:04:44 51°18.939 2°52.597 75.4 12.3 71 11.2
2005-04-28 08:04:48 51°18.944 2°52.62 75.4 12.3 71 11.2
2005-04-28 08:04:52 51°18.949 2°52.64 75.4 12.3 70 11.2
2005-04-28 08:04:58 51°18.956 2°52.671 75.3 12.3 70 11.1
2005-04-28 08:05:03 51°18.962 2°52.696 75 12.3 70 11.1
2005-04-28 08:05:08 51°18.967 2°52.722 75 12.3 70 11.1
2005-04-28 08:05:13 51°18.972 2°52.745 75.4 12.3 71 11
2005-04-28 08:05:18 51°18.978 2°52.771 75.7 12.3 71 11
2005-04-28 08:05:23 51°18.984 2°52.8 76 12.3 71 11
2005-04-28 08:05:28 51°18.99 2°52.826 76 12.4 71 11
2005-04-28 08:05:33 51°18.996 2°52.851 75.8 12.3 70 10.9
2005-04-28 08:05:38 51°19.001 2°52.875 75.4 12.3 70 10.9
2005-04-28 08:05:42 51°19.005 2°52.895 75.4 12.4 71 10.9
2005-04-28 08:05:48 51°19.013 2°52.929 76 12.4 71 10.8
2005-04-28 08:05:53 51°19.018 2°52.955 76 12.4 71 10.8
2005-04-28 08:05:58 51°19.023 2°52.978 76.3 12.3 72 10.9
2005-04-28 08:06:03 51°19.029 2°53.007 76.8 12.3 72 10.8
2005-04-28 08:06:08 51°19.034 2°53.033 76.5 12.3 72 10.8
2005-04-28 08:06:13 51°19.039 2°53.056 76.3 12.3 71 10.8
2005-04-28 08:06:18 51°19.045 2°53.082 76.1 12.3 71 10.8
2005-04-28 08:06:22 51°19.05 2°53.102 75.8 12.3 70 10.8
2005-04-28 08:06:28 51°19.057 2°53.135 75.4 12.4 70 10.8
2005-04-28 08:06:33 51°19.063 2°53.16 74.8 12.4 70 10.7
2005-04-28 08:06:38 51°19.068 2°53.183 75 12.4 70 10.8
2005-04-28 08:06:43 51°19.074 2°53.212 75.4 12.4 70 10.7
2005-04-28 08:06:48 51°19.079 2°53.237 75.7 12.4 70 10.8
2005-04-28 08:06:52 51°19.084 2°53.258 75.6 12.2 71 10.8
2005-04-28 08:06:58 51°19.09 2°53.289 75.4 12.2 70 10.7
2005-04-28 08:07:04 51°19.097 2°53.317 75.6 12.2 70 10.7
2005-04-28 08:07:08 51°19.101 2°53.34 75.9 12.2 70 10.7
2005-04-28 08:07:12 51°19.105 2°53.361 76.1 12.2 70 10.8
2005-04-28 08:07:18 51°19.111 2°53.389 76.2 12.2 70 10.7
2005-04-28 08:07:23 51°19.117 2°53.417 76.5 12.2 70 10.7
2005-04-28 08:07:28 51°19.122 2°53.443 76.1 -999 -999 10.7